Flight Track Log - Related Links

Times and Time Zones

All times are in EDT time to prevent confusion due to time zone crossing. See the SWA325 flight status page for this flight to view local times or setup timezone preferences in your user account.

Time Position Orientation Groundspeed Altitude Reporting Facility
EDT Latitude Longitude Course Direction KTS MPH feet Rate Location/Type
Sun 01:58:46 PM 33.4333 -112.0333 248° West 192 221 1,900  Level Phoenix TRACON
Sun 01:59:35 PM 33.4167 -112.0833 248° West 200 230 3,300 2,022 Climbing Phoenix TRACON
Sun 02:00:18 PM 33.4069 -112.1267 255° West 211 243 5,000 2,286 Climbing Albuquerque Center
Sun 02:01:20 PM 33.3728 -112.1758 230° Southwest 223 257 7,300 1,935 Climbing Albuquerque Center
Sun 02:02:22 PM 33.3092 -112.1342 151° Southeast 262 302 9,000 1,839 Climbing Albuquerque Center
Sun 02:03:24 PM 33.3150 -112.0183 87° East 323 372 11,100 2,274 Climbing Albuquerque Center
Sun 02:04:26 PM 33.3472 -111.9086 71° East 351 404 13,700 2,613 Climbing Albuquerque Center
Sun 02:05:28 PM 33.3811 -111.7939 70° East 367 422 16,500 2,468 Climbing Albuquerque Center
Sun 02:06:30 PM 33.4175 -111.6719 70° East 387 445 18,800 2,274 Climbing Albuquerque Center
Sun 02:07:32 PM 33.4542 -111.5442 71° East 407 468 21,200 2,371 Climbing Albuquerque Center
Sun 02:08:34 PM 33.4997 -111.3850 71° East 424 488 23,700 2,177 Climbing Albuquerque Center
Sun 02:09:36 PM 33.5172 -111.2394 82° East 443 510 25,700 1,694 Climbing Albuquerque Center
Sun 02:10:38 PM 33.5344 -111.0892 82° East 458 527 27,200 1,452 Climbing Albuquerque Center
Sun 02:11:40 PM 33.5514 -110.9308 83° East 476 548 28,700 1,355 Climbing Albuquerque Center
Sun 02:12:42 PM 33.5942 -110.7747 72° East 490 564 30,000 1,258 Climbing Albuquerque Center
Sun 02:13:44 PM 33.6456 -110.6181 68° East 502 578 31,300 1,645 Climbing Albuquerque Center
Sun 02:14:46 PM 33.7069 -110.4250 69° East 514 592 33,400 1,659 Climbing Albuquerque Center
Sun 02:15:47 PM 33.7514 -110.2881 69° East 512 589 34,700 1,415 Climbing Albuquerque Center
Sun 02:16:49 PM 33.8119 -110.0981 69° East 511 588 36,300 1,113 Climbing Albuquerque Center
Sun 02:17:51 PM 33.8625 -109.9383 69° East 513 590 37,000 339 Climbing Albuquerque Center
Sun 02:18:53 PM 33.9133 -109.7797 69° East 512 589 37,000  Level Albuquerque Center
Sun 02:19:55 PM 33.9636 -109.6208 69° East 511 588 37,000  Level Albuquerque Center
Sun 02:20:57 PM 34.0131 -109.4611 69° East 511 588 37,000  Level Albuquerque Center
Sun 02:21:58 PM 34.0622 -109.3025 69° East 509 586 37,000  Level Albuquerque Center
Sun 02:23:00 PM 34.1192 -109.1142 70° East 504 580 37,000  Level Albuquerque Center
Sun 02:24:02 PM 34.1689 -108.9553 69° East 506 582 37,000  Level Albuquerque Center
Sun 02:25:04 PM 34.2178 -108.7983 69° East 505 581 37,000  Level Albuquerque Center
Sun 02:26:06 PM 34.2664 -108.6406 70° East 503 579 37,000  Level Albuquerque Center
Sun 02:27:07 PM 34.3194 -108.4678 70° East 507 583 37,000 49 Level Albuquerque Center
Sun 02:28:09 PM 34.3642 -108.3069 71° East 506 582 37,100 629 Climbing Albuquerque Center
Sun 02:29:11 PM 34.3836 -108.1331 82° East 519 597 38,300 919 Climbing Albuquerque Center
Sun 02:30:13 PM 34.4072 -107.9614 80° East 518 596 39,000 339 Climbing Albuquerque Center
Sun 02:31:15 PM 34.4308 -107.7914 80° East 514 592 39,000  Level Albuquerque Center
Sun 02:32:16 PM 34.4572 -107.5875 81° East 514 592 39,000  Level Albuquerque Center
Sun 02:33:18 PM 34.4800 -107.4183 81° East 512 589 39,000  Level Albuquerque Center
Sun 02:34:20 PM 34.5006 -107.2508 81° East 509 586 39,000  Level Albuquerque Center
Sun 02:35:22 PM 34.5228 -107.0828 81° East 508 585 39,000  Level Albuquerque Center
Sun 02:36:23 PM 34.5436 -106.9147 81° East 509 586 39,000  Level Albuquerque Center
Sun 02:37:25 PM 34.5639 -106.7456 82° East 510 587 39,000  Level Albuquerque Center
Sun 02:38:27 PM 34.5883 -106.5444 82° East 507 583 39,000  Level Albuquerque Center
Sun 02:39:29 PM 34.6086 -106.3764 82° East 509 586 39,000  Level Albuquerque Center
Sun 02:40:30 PM 34.6311 -106.1897 82° East 507 583 39,000  Level Albuquerque Center
Sun 02:41:32 PM 34.6531 -106.0192 81° East 508 585 39,000  Level Albuquerque Center
Sun 02:42:34 PM 34.6722 -105.8478 82° East 508 585 39,000  Level Albuquerque Center
Sun 02:43:36 PM 34.6908 -105.6758 82° East 509 586 39,000  Level Albuquerque Center
Sun 02:44:37 PM 34.7131 -105.5031 81° East 511 588 39,000  Level Albuquerque Center
Sun 02:45:39 PM 34.7331 -105.3319 82° East 511 588 39,000  Level Albuquerque Center
Sun 02:46:41 PM 34.7522 -105.1603 82° East 509 586 39,000  Level Albuquerque Center
Sun 02:47:42 PM 34.7719 -104.9878 82° East 509 586 39,000  Level Albuquerque Center
Sun 02:48:44 PM 34.7931 -104.7878 83° East 507 583 39,000  Level Albuquerque Center
Sun 02:49:46 PM 34.8119 -104.6175 82° East 506 582 39,000  Level Albuquerque Center
Sun 02:50:48 PM 34.8300 -104.4483 83° East 503 579 39,000  Level Albuquerque Center
Sun 02:51:49 PM 34.8475 -104.2794 83° East 503 579 39,000  Level Albuquerque Center
Sun 02:52:51 PM 34.8650 -104.1106 83° East 504 580 39,000  Level Albuquerque Center
Sun 02:53:53 PM 34.8828 -103.9422 83° East 503 579 39,000  Level Albuquerque Center
Sun 02:54:55 PM 34.9003 -103.7731 83° East 503 579 39,000  Level Albuquerque Center
Sun 02:55:56 PM 34.9203 -103.5736 83° East 506 582 39,000  Level Albuquerque Center
Sun 02:56:58 PM 34.9367 -103.4031 83° East 506 582 39,000  Level Albuquerque Center
Sun 02:58:00 PM 34.9528 -103.2306 83° East 508 585 39,000  Level Albuquerque Center
Sun 02:59:01 PM 34.9703 -103.0603 83° East 505 581 39,000  Level Albuquerque Center
Sun 03:00:03 PM 34.9850 -102.8894 84° East 504 580 39,000  Level Albuquerque Center
Sun 03:01:05 PM 35.0019 -102.7189 83° East 503 579 39,000  Level Albuquerque Center
Sun 03:02:07 PM 35.0153 -102.5458 85° East 499 574 39,000  Level Albuquerque Center
Sun 03:03:08 PM 35.0314 -102.3781 83° East 499 574 39,000  Level Albuquerque Center
Sun 03:04:10 PM 35.0453 -102.2122 84° East 496 571 39,000  Level Albuquerque Center
Sun 03:05:12 PM 35.0628 -102.0133 84° East 495 570 39,000  Level Albuquerque Center
Sun 03:06:14 PM 35.0797 -101.8481 83° East 498 573 39,000  Level Albuquerque Center
Sun 03:07:15 PM 35.0925 -101.6797 85° East 495 570 39,000  Level Albuquerque Center
Sun 03:08:17 PM 35.1069 -101.5078 84° East 497 572 39,000  Level Albuquerque Center
Sun 03:09:19 PM 35.1206 -101.3422 84° East 492 566 39,000  Level Albuquerque Center
Sun 03:10:21 PM 35.1347 -101.1583 85° East 496 571 39,000  Level Albuquerque Center
Sun 03:11:22 PM 35.1475 -100.9933 85° East 491 565 39,000  Level Albuquerque Center
Sun 03:12:24 PM 35.1603 -100.8278 85° East 491 565 39,000  Level Albuquerque Center
Sun 03:13:26 PM 35.1714 -100.6619 85° East 491 565 39,000  Level Albuquerque Center
Sun 03:14:28 PM 35.1842 -100.4764 85° East 490 564 39,000  Level Albuquerque Center
Sun 03:15:29 PM 35.1978 -100.3106 84° East 491 565 39,000  Level Albuquerque Center
Sun 03:16:31 PM 35.2100 -100.1461 85° East 488 562 39,000  Level Albuquerque Center
Sun 03:17:33 PM 35.2206 -99.9806 85° East 488 562 39,000  Level Albuquerque Center
Sun 03:18:35 PM 35.2319 -99.8167 85° East 486 559 39,000  Level Albuquerque Center
Sun 03:19:36 PM 35.2425 -99.6508 85° East 488 562 39,000  Level Albuquerque Center
Sun 03:20:38 PM 35.2533 -99.4847 85° East 489 563 39,000  Level Albuquerque Center
Sun 03:21:40 PM 35.2658 -99.2853 86° East 492 566 39,000  Level Albuquerque Center
Sun 03:22:01 PM 35.2675 -99.2442 87° East 489 563 39,000  Level Fort Worth Center
Sun 03:23:01 PM 35.2783 -99.0792 85° East 489 563 39,000  Level Fort Worth Center
Sun 03:24:01 PM 35.2867 -98.9114 86° East 489 563 39,000  Level Fort Worth Center
Sun 03:25:01 PM 35.2969 -98.7464 86° East 489 563 39,000  Level Fort Worth Center
Sun 03:26:01 PM 35.3069 -98.5811 86° East 489 563 39,000  Level Fort Worth Center
Sun 03:27:01 PM 35.3167 -98.4006 86° East 480 552 39,000  Level Fort Worth Center
Sun 03:28:01 PM 35.3264 -98.2328 86° East 480 552 39,000  Level Fort Worth Center
Sun 03:29:01 PM 35.3356 -98.0675 86° East 480 552 39,000  Level Fort Worth Center
Sun 03:30:01 PM 35.3447 -97.9047 86° East 480 552 39,000  Level Fort Worth Center
Sun 03:31:01 PM 35.3517 -97.7394 87° East 480 552 39,000  Level Fort Worth Center
Sun 03:32:01 PM 35.3519 -97.5764 90° East 480 552 39,000  Level Fort Worth Center
Sun 03:33:01 PM 35.3458 -97.4136 93° East 500 575 39,000  Level Fort Worth Center
Sun 03:34:01 PM 35.3247 -97.2508 99° East 500 575 39,000  Level Fort Worth Center
Sun 03:35:01 PM 35.2972 -97.0856 101° East 500 575 39,000  Level Fort Worth Center
Sun 03:36:01 PM 35.2614 -96.9281 106° East 488 562 39,000  Level Fort Worth Center
Sun 03:37:01 PM 35.2272 -96.7706 105° East 483 556 39,000  Level Fort Worth Center
Sun 03:38:01 PM 35.1931 -96.6133 105° East 483 556 39,000  Level Fort Worth Center
Sun 03:39:01 PM 35.1564 -96.4536 106° East 477 549 39,000  Level Fort Worth Center
Sun 03:40:01 PM 35.1197 -96.2942 106° East 477 549 39,000  Level Fort Worth Center
Sun 03:41:01 PM 35.0828 -96.1375 106° East 472 543 39,000  Level Fort Worth Center
Sun 03:42:01 PM 35.0456 -95.9731 105° East 478 550 39,000  Level Fort Worth Center
Sun 03:43:01 PM 35.0103 -95.8164 105° East 478 550 39,000  Level Fort Worth Center
Sun 03:44:01 PM 34.9728 -95.6575 106° East 478 550 39,000  Level Fort Worth Center
Sun 03:45:01 PM 34.9122 -95.5094 116° Southeast 478 550 39,000  Level Fort Worth Center
Sun 03:46:01 PM 34.8514 -95.3614 117° Southeast 483 556 39,000 -211 Level Fort Worth Center
Sun 03:48:20 PM 34.7114 -95.0283 117° Southeast 480 552 38,300 -482 Descending Memphis Center
Sun 03:49:20 PM 34.6519 -94.8861 117° Southeast 480 552 37,400 -950 Descending Memphis Center
Sun 03:50:20 PM 34.5967 -94.7394 115° Southeast 480 552 36,400 -950 Descending Memphis Center
Sun 03:51:20 PM 34.5347 -94.5975 118° Southeast 480 552 35,500 -700 Descending Memphis Center
Sun 03:52:20 PM 34.4939 -94.4469 108° East 475 547 35,000 -250 Descending Memphis Center
Sun 03:53:20 PM 34.4719 -94.2872 99° East 475 547 35,000 -400 Level Memphis Center
Sun 03:54:20 PM 34.4747 -94.1261 89° East 475 547 34,200 -1,200 Descending Memphis Center
Sun 03:55:20 PM 34.4942 -93.9631 82° East 469 540 32,600 -2,500 Descending Memphis Center
Sun 03:56:20 PM 34.5114 -93.7975 83° East 482 555 29,200 -3,300 Descending Memphis Center
Sun 03:57:20 PM 34.5325 -93.6344 81° East 487 560 26,000 -3,200 Descending Memphis Center
Sun 03:58:20 PM 34.5492 -93.4714 83° East 487 560 22,800 -3,200 Descending Memphis Center
Sun 03:59:20 PM 34.5656 -93.3131 83° East 482 555 19,600 -3,100 Descending Memphis Center
Sun 04:00:20 PM 34.5797 -93.1544 84° East 452 520 16,600 -2,800 Descending Memphis Center
Sun 04:01:20 PM 34.5953 -93.0164 82° East 447 514 14,000 -2,850 Descending Memphis Center
Sun 04:02:20 PM 34.6108 -92.8653 83° East 418 481 10,900 -2,000 Descending Memphis Center
Sun 04:03:20 PM 34.6364 -92.7400 76° East 396 456 10,000 -1,000 Descending Memphis Center
Sun 04:04:20 PM 34.6633 -92.6372 72° East 352 405 8,900 -1,300 Descending Memphis Center
Sun 04:05:20 PM 34.6900 -92.5369 72° East 328 377 7,400 -1,440 Descending Memphis Center
Sun 04:05:35 PM 34.6947 -92.5117 77° East 310 357 7,100 -1,500 Descending Memphis Center
Sun 04:06:20 PM 34.7189 -92.4392 68° East 310 357 5,900 -1,377 Descending Memphis Center
Sun 04:06:36 PM 34.7233 -92.4214 73° East 306 352 5,700 -1,000 Descending Memphis Center
Sun 04:07:20 PM 34.7494 -92.3514 66° East 295 339 4,900 -909 Descending Memphis Center
Sun 04:07:42 PM 34.7561 -92.3261 72° East 249 287 4,700 -700 Descending Memphis Center
Sun 04:08:20 PM 34.7778 -92.2836 58° Northeast 259 298 4,200 -985 Descending Memphis Center
Sun 04:08:49 PM 34.7925 -92.2664 44° Northeast 166 191 3,600 -1,500 Descending Memphis Center
Sun 04:09:20 PM 34.8014 -92.2361 70° East 202 232 2,700 -1,527 Descending Memphis Center
Sun 04:09:44 PM 34.7953 -92.2183 113° Southeast 160 184 2,200 -1,400 Descending Memphis Center
Sun 04:10:20 PM 34.7747 -92.1978 141° Southeast 125 144 1,300 -1,200 Descending Memphis Center
Sun 04:10:44 PM 34.7558 -92.2025 192° South 144 166 1,000 -300 Descending Memphis Center
Sun 04:11:20 PM 34.7669 -92.1647 70° East 118 136 1,000 5,625 Level Memphis Center
Sun 04:12:20 PM 34.7569 -92.1267 108° East 118 136 10,000 4,500 Climbing Memphis Center
Sun 04:13:20 PM 34.7472 -92.0883 107° East 118 136 10,000  Level Memphis Center
Sun 04:14:20 PM 34.7372 -92.0503 108° East 118 136 10,000  Level Memphis Center
Sun 04:16:00 PM 34.7167 -92.2167 261° West  Level FlightAware Approximate
Sun 04:23:00 PM 34.7294 -92.2248 261° West  Level Estimated
Sun 04:24:00 PM 34.7294 -92.2248 261° West  Level Estimated

Login

Don't have an account? Register now (free) for customized features, flight alerts, and more!